Time;durP1;ratioP1;P1;durP2;ratioP2;P2;SDS_P1;SDS_P2;PMS_P1;PMS_P2;Temp;Humidity;BMP_temperature;BMP_pressure;BME280_temperature;BME280_humidity;BME280_pressure;Samples;Min_cycle;Max_cycle;Signal;HPM_P1;HPM_P2
2023/06/17 00:02:21;;;;;;;;;;;;;;;;;;5115274;28;892;-65
2023/06/17 00:04:47;;;;;;;;;;;;;;;;;;5114673;28;840;-65
2023/06/17 00:07:12;;;;;;;;;;;;;;;;;;5114764;28;1910;-65
2023/06/17 00:09:40;;;;;;;;;;;;;;;;;;5114804;28;915;-65
2023/06/17 00:12:06;;;;;;;;;;;;;;;;;;5113227;28;1021;-65
2023/06/17 00:14:32;;;;;;;;;;;;;;;;;;5114424;28;2197;-65
2023/06/17 00:16:59;;;;;;;;;;;;;;;;;;5114041;28;939;-65
2023/06/17 00:19:25;;;;;;;;;;;;;;;;;;5114693;28;932;-65
2023/06/17 00:21:52;;;;;;;;;;;;;;;;;;5114434;28;844;-65
2023/06/17 00:24:18;;;;;;;;;;;;;;;;;;5114582;28;1334;-65
2023/06/17 00:26:43;;;;;;;;;;;;;;;;;;5113846;28;1897;-65
2023/06/17 00:29:09;;;;;;;;;;;;;;;;;;5113623;28;995;-65
2023/06/17 00:31:34;;;;;;;;;;;;;;;;;;5114331;28;832;-65
2023/06/17 00:33:59;;;;;;;;;;;;;;;;;;5113735;28;995;-65
2023/06/17 00:36:25;;;;;;;;;;;;;;;;;;5114108;28;951;-65
2023/06/17 00:38:50;;;;;;;;;;;;;;;;;;5114099;28;868;-65
2023/06/17 00:41:16;;;;;;;;;;;;;;;;;;5113784;28;915;-65
2023/06/17 00:43:41;;;;;;;;;;;;;;;;;;5113912;28;1066;-65
2023/06/17 00:46:07;;;;;;;;;;;;;;;;;;5112260;28;1893;-65
2023/06/17 00:48:32;;;;;;;;;;;;;;;;;;5113805;28;833;-66
2023/06/17 00:51:01;;;;;;;;;;;;;;;;;;5113296;28;1054;-65
2023/06/17 00:53:30;;;;;;;;;;;;;;;;;;5114091;28;836;-66
2023/06/17 00:55:57;;;;;;;;;;;;;;;;;;5113058;28;1251;-66
2023/06/17 00:58:23;;;;;;;;;;;;;;;;;;5113355;28;708;-66
2023/06/17 01:00:48;;;;;;;;;;;;;;;;;;5113968;28;1007;-66
2023/06/17 01:03:17;;;;;;;;;;;;;;;;;;5113248;28;1002;-65
2023/06/17 01:05:43;;;;;;;;;;;;;;;;;;5113747;28;1907;-65
2023/06/17 01:08:15;;;;;;;;;;;;;;;;;;5113429;28;937;-65
2023/06/17 01:10:58;;;;;;;;;;;;;;;;;;5113646;28;927;-66
2023/06/17 01:13:26;;;;;;;;;;;;;;;;;;5112917;28;1194;-65
2023/06/17 01:15:52;;;;;;;;;;;;;;;;;;5113090;28;885;-65
2023/06/17 01:18:18;;;;;;;;;;;;;;;;;;5113630;28;865;-65
2023/06/17 01:20:44;;;;;;;;;;;;;;;;;;5112442;28;1856;-65
2023/06/17 01:23:11;;;;;;;;;;;;;;;;;;5113248;28;1008;-66
2023/06/17 01:25:37;;;;;;;;;;;;;;;;;;5112801;28;1890;-66
2023/06/17 01:28:13;;;;;;;;;;;;;;;;;;5114430;28;841;-66
2023/06/17 01:30:38;;;;;;;;;;;;;;;;;;5116114;28;912;-66
2023/06/17 01:33:04;;;;;;;;;;;;;;;;;;5117275;28;865;-66
2023/06/17 01:35:32;;;;;;;;;;;;;;;;;;5117183;28;927;-66
2023/06/17 01:38:14;;;;;;;;;;;;;;;;;;5117003;28;910;-66
2023/06/17 01:40:42;;;;;;;;;;;;;;;;;;5117212;28;875;-66
2023/06/17 01:43:09;;;;;;;;;;;;;;;;;;5115483;28;1499;-66
2023/06/17 01:45:34;;;;;;;;;;;;;;;;;;5117556;28;1949;-66
2023/06/17 01:48:00;;;;;;;;;;;;;;;;;;5117683;28;915;-66
2023/06/17 01:50:26;;;;;;;;;;;;;;;;;;5117460;28;899;-66
2023/06/17 01:52:51;;;;;;;;;;;;;;;;;;5116360;28;976;-66
2023/06/17 01:55:17;;;;;;;;;;;;;;;;;;5115476;28;862;-66
2023/06/17 01:57:43;;;;;;;;;;;;;;;;;;5116785;27;1167;-66
2023/06/17 02:00:09;;;;;;;;;;;;;;;;;;5116560;28;912;-65
2023/06/17 02:02:35;;;;;;;;;;;;;;;;;;5116235;28;904;-65
2023/06/17 02:05:01;;;;;;;;;;;;;;;;;;5116736;28;875;-65
2023/06/17 02:07:27;;;;;;;;;;;;;;;;;;5115661;28;1918;-66
2023/06/17 02:09:52;;;;;;;;;;;;;;;;;;5116233;28;944;-65
2023/06/17 02:12:17;;;;;;;;;;;;;;;;;;5116559;28;903;-66
2023/06/17 02:14:43;;;;;;;;;;;;;;;;;;5116504;28;1098;-66
2023/06/17 02:17:10;;;;;;;;;;;;;;;;;;5115781;28;876;-65
2023/06/17 02:19:36;;;;;;;;;;;;;;;;;;5116231;28;879;-66
2023/06/17 02:22:02;;;;;;;;;;;;;;;;;;5116125;28;979;-66
2023/06/17 02:24:29;;;;;;;;;;;;;;;;;;5115582;28;1081;-65
2023/06/17 02:26:56;;;;;;;;;;;;;;;;;;5114714;28;1917;-66
2023/06/17 02:29:21;;;;;;;;;;;;;;;;;;5097964;28;1123;-65
2023/06/17 02:31:46;;;;;;;;;;;;;;;;;;5115932;28;1214;-66
2023/06/17 02:34:11;;;;;;;;;;;;;;;;;;5113422;28;908;-66
2023/06/17 02:36:38;;;;;;;;;;;;;;;;;;5115210;28;904;-65
2023/06/17 02:39:04;;;;;;;;;;;;;;;;;;5114614;27;884;-65
2023/06/17 02:41:29;;;;;;;;;;;;;;;;;;5113621;28;1226;-65
2023/06/17 02:43:54;;;;;;;;;;;;;;;;;;5114770;28;821;-65
2023/06/17 02:46:19;;;;;;;;;;;;;;;;;;5114599;28;2000;-65
2023/06/17 02:48:45;;;;;;;;;;;;;;;;;;5114967;28;905;-66
2023/06/17 02:51:10;;;;;;;;;;;;;;;;;;5115099;28;928;-65
2023/06/17 02:53:35;;;;;;;;;;;;;;;;;;5115086;28;912;-66
2023/06/17 02:56:00;;;;;;;;;;;;;;;;;;5114834;27;1187;-65
2023/06/17 02:58:26;;;;;;;;;;;;;;;;;;5115118;28;1039;-66
2023/06/17 03:00:55;;;;;;;;;;;;;;;;;;5115635;28;845;-65
2023/06/17 03:03:33;;;;;;;;;;;;;;;;;;5115402;28;852;-65
2023/06/17 03:06:01;;;;;;;;;;;;;;;;;;5115115;28;1910;-65
2023/06/17 03:08:28;;;;;;;;;;;;;;;;;;5114761;28;1039;-66
2023/06/17 03:10:53;;;;;;;;;;;;;;;;;;5114800;28;1063;-65
2023/06/17 03:13:18;;;;;;;;;;;;;;;;;;5115080;28;1153;-65
2023/06/17 03:15:44;;;;;;;;;;;;;;;;;;5114789;28;865;-64
2023/06/17 03:18:09;;;;;;;;;;;;;;;;;;5114741;28;869;-65
2023/06/17 03:20:35;;;;;;;;;;;;;;;;;;5114963;28;864;-65
2023/06/17 03:23:02;;;;;;;;;;;;;;;;;;5115509;28;853;-65
2023/06/17 03:25:27;;;;;;;;;;;;;;;;;;5114100;28;1964;-65
2023/06/17 03:27:52;;;;;;;;;;;;;;;;;;5115315;28;935;-65
2023/06/17 03:30:18;;;;;;;;;;;;;;;;;;5115534;28;872;-65
2023/06/17 03:32:44;;;;;;;;;;;;;;;;;;5115146;28;1059;-66
2023/06/17 03:35:09;;;;;;;;;;;;;;;;;;5115295;28;988;-66
2023/06/17 03:37:35;;;;;;;;;;;;;;;;;;5115105;28;816;-66
2023/06/17 03:40:00;;;;;;;;;;;;;;;;;;5114046;28;971;-66
2023/06/17 03:42:25;;;;;;;;;;;;;;;;;;5115443;28;951;-66
2023/06/17 03:44:51;;;;;;;;;;;;;;;;;;5114944;28;947;-66
2023/06/17 03:47:16;;;;;;;;;;;;;;;;;;5114464;28;1905;-66
2023/06/17 03:49:42;;;;;;;;;;;;;;;;;;5115038;28;919;-66
2023/06/17 03:52:08;;;;;;;;;;;;;;;;;;5114133;28;836;-66
2023/06/17 03:54:33;;;;;;;;;;;;;;;;;;5114738;28;948;-66
2023/06/17 03:56:58;;;;;;;;;;;;;;;;;;5114226;28;1272;-66
2023/06/17 03:59:24;;;;;;;;;;;;;;;;;;5114266;28;904;-66
2023/06/17 04:01:49;;;;;;;;;;;;;;;;;;5114368;28;1067;-64
2023/06/17 04:04:14;;;;;;;;;;;;;;;;;;5111930;28;1023;-65
2023/06/17 04:06:40;;;;;;;;;;;;;;;;;;5113264;28;1957;-66
2023/06/17 04:09:05;;;;;;;;;;;;;;;;;;5112952;28;1245;-64
2023/06/17 04:11:32;;;;;;;;;;;;;;;;;;5110241;28;1222;-66
2023/06/17 04:13:58;;;;;;;;;;;;;;;;;;5111216;27;1187;-64
2023/06/17 04:16:23;;;;;;;;;;;;;;;;;;5112098;28;1219;-64
2023/06/17 04:18:48;;;;;;;;;;;;;;;;;;5113147;28;929;-65
2023/06/17 04:21:14;;;;;;;;;;;;;;;;;;5113656;28;845;-65
2023/06/17 04:23:39;;;;;;;;;;;;;;;;;;5113799;28;852;-65
2023/06/17 04:26:04;;;;;;;;;;;;;;;;;;5113711;28;1898;-65
2023/06/17 04:28:31;;;;;;;;;;;;;;;;;;5113609;28;899;-65
2023/06/17 04:31:00;;;;;;;;;;;;;;;;;;5113387;28;975;-65
2023/06/17 04:33:26;;;;;;;;;;;;;;;;;;5113506;28;979;-66
2023/06/17 04:35:51;;;;;;;;;;;;;;;;;;5113797;28;852;-65
2023/06/17 04:38:17;;;;;;;;;;;;;;;;;;5112240;28;861;-64
2023/06/17 04:40:42;;;;;;;;;;;;;;;;;;5113522;28;1018;-65
2023/06/17 04:43:07;;;;;;;;;;;;;;;;;;5114232;28;829;-66
2023/06/17 04:45:35;;;;;;;;;;;;;;;;;;5113522;28;1959;-66
2023/06/17 04:48:03;;;;;;;;;;;;;;;;;;5113605;28;876;-66
2023/06/17 04:50:29;;;;;;;;;;;;;;;;;;5113032;28;841;-66
2023/06/17 04:52:54;;;;;;;;;;;;;;;;;;5113600;28;1015;-66
2023/06/17 04:55:21;;;;;;;;;;;;;;;;;;5112658;28;909;-66
2023/06/17 04:57:46;;;;;;;;;;;;;;;;;;5112751;28;1223;-66
2023/06/17 05:00:12;;;;;;;;;;;;;;;;;;5113286;28;881;-66
2023/06/17 05:02:38;;;;;;;;;;;;;;;;;;5114751;28;1123;-66
2023/06/17 05:05:04;;;;;;;;;;;;;;;;;;5117517;28;821;-66
2023/06/17 05:07:30;;;;;;;;;;;;;;;;;;5117284;28;1918;-66
2023/06/17 05:09:55;;;;;;;;;;;;;;;;;;5117714;28;880;-66
2023/06/17 05:12:20;;;;;;;;;;;;;;;;;;5099436;28;1464;-66
2023/06/17 05:14:46;;;;;;;;;;;;;;;;;;5117546;28;909;-65
2023/06/17 05:17:11;;;;;;;;;;;;;;;;;;5117385;28;1015;-65
2023/06/17 05:19:36;;;;;;;;;;;;;;;;;;5117354;28;820;-65
2023/06/17 05:22:01;;;;;;;;;;;;;;;;;;5117887;28;986;-66
2023/06/17 05:24:27;;;;;;;;;;;;;;;;;;5116980;28;844;-66
2023/06/17 05:26:52;;;;;;;;;;;;;;;;;;5117566;28;1969;-65
2023/06/17 05:29:18;;;;;;;;;;;;;;;;;;5116962;28;1265;-65
2023/06/17 05:31:44;;;;;;;;;;;;;;;;;;5117389;28;876;-64
2023/06/17 05:34:09;;;;;;;;;;;;;;;;;;5117315;28;852;-66
2023/06/17 05:36:34;;;;;;;;;;;;;;;;;;5116012;28;797;-66
2023/06/17 05:39:00;;;;;;;;;;;;;;;;;;5117244;28;812;-66
2023/06/17 05:41:26;;;;;;;;;;;;;;;;;;5116897;27;857;-66
2023/06/17 05:43:51;;;;;;;;;;;;;;;;;;5116957;28;956;-66
2023/06/17 05:46:16;;;;;;;;;;;;;;;;;;5117052;28;1962;-66
2023/06/17 05:48:42;;;;;;;;;;;;;;;;;;5116718;28;838;-66
2023/06/17 05:51:07;;;;;;;;;;;;;;;;;;5117287;28;872;-66
2023/06/17 05:53:32;;;;;;;;;;;;;;;;;;5117026;28;904;-65
2023/06/17 05:55:58;;;;;;;;;;;;;;;;;;5115973;28;1215;-65
2023/06/17 05:58:23;;;;;;;;;;;;;;;;;;5116176;28;936;-64
2023/06/17 06:00:48;;;;;;;;;;;;;;;;;;5115643;28;849;-65
2023/06/17 06:03:13;;;;;;;;;;;;;;;;;;5114513;28;893;-64
2023/06/17 06:05:39;;;;;;;;;;;;;;;;;;5115927;28;1955;-64
2023/06/17 06:08:04;;;;;;;;;;;;;;;;;;5115562;28;971;-64
2023/06/17 06:10:29;;;;;;;;;;;;;;;;;;5115523;28;832;-64
2023/06/17 06:12:55;;;;;;;;;;;;;;;;;;5115834;28;868;-64
2023/06/17 06:15:20;;;;;;;;;;;;;;;;;;5115255;28;896;-64
2023/06/17 06:17:45;;;;;;;;;;;;;;;;;;5114923;28;845;-64
2023/06/17 06:20:11;;;;;;;;;;;;;;;;;;5115867;28;821;-64
2023/06/17 06:22:37;;;;;;;;;;;;;;;;;;5115248;28;999;-65
2023/06/17 06:25:02;;;;;;;;;;;;;;;;;;5115406;28;947;-64
2023/06/17 06:27:27;;;;;;;;;;;;;;;;;;5114872;28;1898;-64
2023/06/17 06:29:52;;;;;;;;;;;;;;;;;;5115728;28;1011;-64
2023/06/17 06:32:18;;;;;;;;;;;;;;;;;;5114278;28;1027;-64
2023/06/17 06:34:45;;;;;;;;;;;;;;;;;;5115426;28;837;-64
2023/06/17 06:37:10;;;;;;;;;;;;;;;;;;5115722;28;864;-64
2023/06/17 06:39:35;;;;;;;;;;;;;;;;;;5115829;28;910;-64
2023/06/17 06:42:01;;;;;;;;;;;;;;;;;;5115488;28;829;-63
2023/06/17 06:44:26;;;;;;;;;;;;;;;;;;5115148;28;817;-63
2023/06/17 06:46:51;;;;;;;;;;;;;;;;;;5115231;28;1958;-64
2023/06/17 06:49:17;;;;;;;;;;;;;;;;;;5115544;28;634;-64
2023/06/17 06:51:42;;;;;;;;;;;;;;;;;;5115416;28;853;-64
2023/06/17 06:54:07;;;;;;;;;;;;;;;;;;5115258;28;896;-63
2023/06/17 06:56:32;;;;;;;;;;;;;;;;;;5114106;28;1154;-63
2023/06/17 06:58:58;;;;;;;;;;;;;;;;;;5115260;28;936;-63
2023/06/17 07:01:23;;;;;;;;;;;;;;;;;;5113496;28;1270;-63
2023/06/17 07:03:49;;;;;;;;;;;;;;;;;;5112670;28;1168;-63
2023/06/17 07:06:14;;;;;;;;;;;;;;;;;;5113187;28;1964;-64
2023/06/17 07:08:39;;;;;;;;;;;;;;;;;;5114794;28;1258;-63
2023/06/17 07:11:05;;;;;;;;;;;;;;;;;;5114493;28;1147;-64
2023/06/17 07:13:30;;;;;;;;;;;;;;;;;;5114664;28;1222;-63
2023/06/17 07:15:55;;;;;;;;;;;;;;;;;;5095282;28;1160;-63
2023/06/17 07:18:21;;;;;;;;;;;;;;;;;;5114697;28;1222;-64
2023/06/17 07:20:46;;;;;;;;;;;;;;;;;;5113003;28;829;-64
2023/06/17 07:23:12;;;;;;;;;;;;;;;;;;5113445;28;975;-63
2023/06/17 07:25:37;;;;;;;;;;;;;;;;;;5113245;28;1960;-63
2023/06/17 07:28:02;;;;;;;;;;;;;;;;;;5114357;28;1073;-64
2023/06/17 07:30:28;;;;;;;;;;;;;;;;;;5114115;27;856;-63
2023/06/17 07:32:53;;;;;;;;;;;;;;;;;;5114557;28;892;-64
2023/06/17 07:35:19;;;;;;;;;;;;;;;;;;5114165;28;895;-64
2023/06/17 07:37:44;;;;;;;;;;;;;;;;;;5113929;28;857;-63
2023/06/17 07:40:11;;;;;;;;;;;;;;;;;;5114602;28;797;-63
2023/06/17 07:42:37;;;;;;;;;;;;;;;;;;5114771;28;873;-63
2023/06/17 07:45:03;;;;;;;;;;;;;;;;;;5114344;28;868;-64
2023/06/17 07:47:29;;;;;;;;;;;;;;;;;;5114276;28;1906;-64
2023/06/17 07:49:54;;;;;;;;;;;;;;;;;;5113634;28;883;-64
2023/06/17 07:52:20;;;;;;;;;;;;;;;;;;5114724;28;1007;-63
2023/06/17 07:54:47;;;;;;;;;;;;;;;;;;5113887;28;1033;-63
2023/06/17 07:57:12;;;;;;;;;;;;;;;;;;5114187;28;1144;-63
2023/06/17 07:59:40;;;;;;;;;;;;;;;;;;5113921;28;928;-64
2023/06/17 08:02:06;;;;;;;;;;;;;;;;;;5113456;28;903;-63
2023/06/17 08:04:31;;;;;;;;;;;;;;;;;;5113785;28;914;-64
2023/06/17 08:06:56;;;;;;;;;;;;;;;;;;5113307;28;1906;-63
2023/06/17 08:09:22;;;;;;;;;;;;;;;;;;5113636;28;959;-64
2023/06/17 08:11:47;;;;;;;;;;;;;;;;;;5113381;28;829;-64
2023/06/17 08:14:13;;;;;;;;;;;;;;;;;;5113533;28;836;-63
2023/06/17 08:16:38;;;;;;;;;;;;;;;;;;5113455;28;1019;-63
2023/06/17 08:19:03;;;;;;;;;;;;;;;;;;5113697;28;952;-63
2023/06/17 08:21:29;;;;;;;;;;;;;;;;;;5113719;28;853;-63
2023/06/17 08:23:54;;;;;;;;;;;;;;;;;;5113132;28;869;-63
2023/06/17 08:26:19;;;;;;;;;;;;;;;;;;5113519;28;1893;-63
2023/06/17 08:28:45;;;;;;;;;;;;;;;;;;5113661;28;861;-63
2023/06/17 08:31:11;;;;;;;;;;;;;;;;;;5112626;28;879;-63
2023/06/17 08:33:36;;;;;;;;;;;;;;;;;;5113386;28;950;-63
2023/06/17 08:36:02;;;;;;;;;;;;;;;;;;5113199;28;908;-63
2023/06/17 08:38:27;;;;;;;;;;;;;;;;;;5112954;28;924;-64
2023/06/17 08:40:52;;;;;;;;;;;;;;;;;;5112911;28;948;-64
2023/06/17 08:43:20;;;;;;;;;;;;;;;;;;5113998;28;1080;-64
2023/06/17 08:45:49;;;;;;;;;;;;;;;;;;5113435;28;1947;-64
2023/06/17 08:48:15;;;;;;;;;;;;;;;;;;5113146;28;1336;-63
2023/06/17 08:50:41;;;;;;;;;;;;;;;;;;5112887;28;928;-63
2023/06/17 08:53:06;;;;;;;;;;;;;;;;;;5113357;28;924;-63
2023/06/17 08:55:31;;;;;;;;;;;;;;;;;;5113455;28;924;-63
2023/06/17 08:57:58;;;;;;;;;;;;;;;;;;5112316;28;1357;-63
2023/06/17 09:00:23;;;;;;;;;;;;;;;;;;5113142;28;876;-63
2023/06/17 09:02:49;;;;;;;;;;;;;;;;;;5112942;28;904;-63
2023/06/17 09:05:15;;;;;;;;;;;;;;;;;;5112978;28;849;-63
2023/06/17 09:07:41;;;;;;;;;;;;;;;;;;5112572;28;1976;-63
2023/06/17 09:10:07;;;;;;;;;;;;;;;;;;5112892;28;833;-63
2023/06/17 09:12:37;;;;;;;;;;;;;;;;;;5113289;28;828;-63
2023/06/17 09:15:02;;;;;;;;;;;;;;;;;;5112828;28;809;-63
2023/06/17 09:17:31;;;;;;;;;;;;;;;;;;5112749;28;845;-63
2023/06/17 09:20:08;;;;;;;;;;;;;;;;;;5112458;28;868;-63
2023/06/17 09:22:34;;;;;;;;;;;;;;;;;;5113015;28;1603;-64
2023/06/17 09:24:59;;;;;;;;;;;;;;;;;;5112348;28;813;-63
2023/06/17 09:27:25;;;;;;;;;;;;;;;;;;5112680;28;1963;-63
2023/06/17 09:30:09;;;;;;;;;;;;;;;;;;5113136;28;948;-63
2023/06/17 09:32:42;;;;;;;;;;;;;;;;;;5112649;28;932;-63
2023/06/17 09:35:12;;;;;;;;;;;;;;;;;;5112474;28;937;-63
2023/06/17 09:37:37;;;;;;;;;;;;;;;;;;5112550;28;801;-65
2023/06/17 09:40:05;;;;;;;;;;;;;;;;;;5111642;28;896;-63
2023/06/17 09:42:31;;;;;;;;;;;;;;;;;;5113224;28;845;-63
2023/06/17 09:45:01;;;;;;;;;;;;;;;;;;5112091;28;924;-63
2023/06/17 09:47:32;;;;;;;;;;;;;;;;;;5112448;28;1901;-63
2023/06/17 09:50:00;;;;;;;;;;;;;;;;;;5114269;28;906;-63
2023/06/17 09:52:26;;;;;;;;;;;;;;;;;;5116005;28;912;-63
2023/06/17 09:54:52;;;;;;;;;;;;;;;;;;5115938;28;998;-63
2023/06/17 09:57:18;;;;;;;;;;;;;;;;;;5114875;28;1371;-63
2023/06/17 09:59:45;;;;;;;;;;;;;;;;;;5114462;28;884;-63
2023/06/17 10:02:11;;;;;;;;;;;;;;;;;;5115805;28;944;-63
2023/06/17 10:04:36;;;;;;;;;;;;;;;;;;5115985;28;769;-63
2023/06/17 10:07:02;;;;;;;;;;;;;;;;;;5115597;28;1910;-63
2023/06/17 10:09:28;;;;;;;;;;;;;;;;;;5115982;27;864;-63
2023/06/17 10:11:55;;;;;;;;;;;;;;;;;;5115839;28;876;-63
2023/06/17 10:14:23;;;;;;;;;;;;;;;;;;5116027;28;750;-63
2023/06/17 10:16:50;;;;;;;;;;;;;;;;;;5115662;28;986;-63
2023/06/17 10:19:22;;;;;;;;;;;;;;;;;;5115738;28;853;-63
2023/06/17 10:21:49;;;;;;;;;;;;;;;;;;5115667;28;964;-63
2023/06/17 10:24:15;;;;;;;;;;;;;;;;;;5114697;28;690;-63
2023/06/17 10:26:41;;;;;;;;;;;;;;;;;;5115682;28;1898;-63
2023/06/17 10:29:07;;;;;;;;;;;;;;;;;;5115751;28;932;-63
2023/06/17 10:31:39;;;;;;;;;;;;;;;;;;5115976;28;841;-64
2023/06/17 10:34:06;;;;;;;;;;;;;;;;;;5115316;28;909;-64
2023/06/17 10:36:37;;;;;;;;;;;;;;;;;;5114498;28;1624;-64
2023/06/17 10:39:04;;;;;;;;;;;;;;;;;;5115230;28;987;-64
2023/06/17 10:41:52;;;;;;;;;;;;;;;;;;5115297;27;965;-64
2023/06/17 10:44:20;;;;;;;;;;;;;;;;;;5115256;28;1198;-64
2023/06/17 10:46:46;;;;;;;;;;;;;;;;;;5113444;28;1905;-64
2023/06/17 10:49:14;;;;;;;;;;;;;;;;;;5114658;28;879;-64
2023/06/17 10:51:45;;;;;;;;;;;;;;;;;;5115460;28;891;-64
2023/06/17 10:54:10;;;;;;;;;;;;;;;;;;5114865;28;1008;-64
2023/06/17 10:56:45;;;;;;;;;;;;;;;;;;5114907;28;1246;-64
2023/06/17 10:59:10;;;;;;;;;;;;;;;;;;5115352;28;908;-64
2023/06/17 11:01:40;;;;;;;;;;;;;;;;;;5114806;28;1010;-64
2023/06/17 11:04:09;;;;;;;;;;;;;;;;;;5115090;28;1707;-64
2023/06/17 11:06:34;;;;;;;;;;;;;;;;;;5114745;28;1906;-64
2023/06/17 11:09:00;;;;;;;;;;;;;;;;;;5114959;28;844;-65
2023/06/17 11:11:25;;;;;;;;;;;;;;;;;;5115592;28;975;-64
2023/06/17 11:13:51;;;;;;;;;;;;;;;;;;5115090;28;840;-65
2023/06/17 11:16:18;;;;;;;;;;;;;;;;;;5115226;28;836;-64
2023/06/17 11:18:44;;;;;;;;;;;;;;;;;;5115159;28;817;-64
2023/06/17 11:21:10;;;;;;;;;;;;;;;;;;5115284;28;816;-63
2023/06/17 11:23:38;;;;;;;;;;;;;;;;;;5115154;28;1018;-64
2023/06/17 11:26:05;;;;;;;;;;;;;;;;;;5113601;28;1906;-62
2023/06/17 11:28:31;;;;;;;;;;;;;;;;;;5113855;28;897;-63
2023/06/17 11:30:56;;;;;;;;;;;;;;;;;;5114399;28;904;-63
2023/06/17 11:33:21;;;;;;;;;;;;;;;;;;5114648;28;880;-63
2023/06/17 11:35:48;;;;;;;;;;;;;;;;;;5114467;27;910;-63
2023/06/17 11:38:14;;;;;;;;;;;;;;;;;;5114785;28;899;-63
2023/06/17 11:40:40;;;;;;;;;;;;;;;;;;5114708;28;853;-63
2023/06/17 11:43:06;;;;;;;;;;;;;;;;;;5113812;28;1225;-63
2023/06/17 11:45:32;;;;;;;;;;;;;;;;;;5114364;28;1897;-63
2023/06/17 11:47:57;;;;;;;;;;;;;;;;;;5113844;28;928;-63
2023/06/17 11:50:27;;;;;;;;;;;;;;;;;;5112978;28;999;-63
2023/06/17 11:52:56;;;;;;;;;;;;;;;;;;5113352;28;963;-63
2023/06/17 11:55:32;;;;;;;;;;;;;;;;;;5112804;28;1316;-63
2023/06/17 11:57:57;;;;;;;;;;;;;;;;;;5113700;28;1174;-63
2023/06/17 12:00:23;;;;;;;;;;;;;;;;;;5113756;28;908;-63
2023/06/17 12:02:48;;;;;;;;;;;;;;;;;;5114451;28;840;-63
2023/06/17 12:05:14;;;;;;;;;;;;;;;;;;5112633;28;896;-63
2023/06/17 12:07:40;;;;;;;;;;;;;;;;;;5113635;28;1976;-63
2023/06/17 12:10:06;;;;;;;;;;;;;;;;;;5112224;28;881;-64
2023/06/17 12:12:32;;;;;;;;;;;;;;;;;;5113235;28;836;-63
2023/06/17 12:15:03;;;;;;;;;;;;;;;;;;5113694;28;896;-63
2023/06/17 12:17:35;;;;;;;;;;;;;;;;;;5113406;28;904;-63
2023/06/17 12:20:00;;;;;;;;;;;;;;;;;;5113317;27;1182;-63
2023/06/17 12:22:26;;;;;;;;;;;;;;;;;;5113394;28;888;-63
2023/06/17 12:24:51;;;;;;;;;;;;;;;;;;5113932;28;918;-63
2023/06/17 12:27:16;;;;;;;;;;;;;;;;;;5113741;28;2006;-63
2023/06/17 12:29:44;;;;;;;;;;;;;;;;;;5112590;28;1011;-63
2023/06/17 12:32:09;;;;;;;;;;;;;;;;;;5112718;28;926;-63
2023/06/17 12:34:34;;;;;;;;;;;;;;;;;;5113325;28;821;-63
2023/06/17 12:37:00;;;;;;;;;;;;;;;;;;5113057;28;895;-63
2023/06/17 12:39:26;;;;;;;;;;;;;;;;;;5113544;28;953;-63
2023/06/17 12:41:51;;;;;;;;;;;;;;;;;;5113705;28;793;-63
2023/06/17 12:44:17;;;;;;;;;;;;;;;;;;5113238;28;953;-63
2023/06/17 12:46:44;;;;;;;;;;;;;;;;;;5113977;28;1984;-63
2023/06/17 12:49:10;;;;;;;;;;;;;;;;;;5113091;28;857;-64
2023/06/17 12:51:36;;;;;;;;;;;;;;;;;;5112926;28;828;-64
2023/06/17 12:54:01;;;;;;;;;;;;;;;;;;5112664;28;1021;-64
2023/06/17 12:56:26;;;;;;;;;;;;;;;;;;5113096;28;1147;-64
2023/06/17 12:58:51;;;;;;;;;;;;;;;;;;5113497;28;993;-64
2023/06/17 13:01:17;;;;;;;;;;;;;;;;;;5113031;28;936;-64
2023/06/17 13:03:42;;;;;;;;;;;;;;;;;;5113987;28;1023;-64
2023/06/17 13:06:07;;;;;;;;;;;;;;;;;;5113066;28;1906;-64
2023/06/17 13:08:33;;;;;;;;;;;;;;;;;;5113607;28;853;-64
2023/06/17 13:10:59;;;;;;;;;;;;;;;;;;5112941;28;904;-64
2023/06/17 13:13:26;;;;;;;;;;;;;;;;;;5113284;28;837;-64
2023/06/17 13:15:52;;;;;;;;;;;;;;;;;;5113643;28;1092;-64
2023/06/17 13:18:17;;;;;;;;;;;;;;;;;;5113170;28;857;-64
2023/06/17 13:20:43;;;;;;;;;;;;;;;;;;5113424;28;995;-64
2023/06/17 13:23:08;;;;;;;;;;;;;;;;;;5114165;28;909;-64
2023/06/17 13:25:33;;;;;;;;;;;;;;;;;;5117629;28;1952;-64
2023/06/17 13:27:59;;;;;;;;;;;;;;;;;;5115341;28;931;-64
2023/06/17 13:30:24;;;;;;;;;;;;;;;;;;5117025;28;901;-64
2023/06/17 13:32:50;;;;;;;;;;;;;;;;;;5117545;28;895;-64
2023/06/17 13:35:15;;;;;;;;;;;;;;;;;;5117008;28;1031;-64
2023/06/17 13:37:40;;;;;;;;;;;;;;;;;;5116703;28;943;-64
2023/06/17 13:40:06;;;;;;;;;;;;;;;;;;5116673;28;1015;-64
2023/06/17 13:42:32;;;;;;;;;;;;;;;;;;5116662;28;929;-64
2023/06/17 13:44:59;;;;;;;;;;;;;;;;;;5116218;28;1340;-64
2023/06/17 13:47:24;;;;;;;;;;;;;;;;;;5116640;28;1905;-64
2023/06/17 13:49:49;;;;;;;;;;;;;;;;;;5116803;28;842;-63
2023/06/17 13:52:16;;;;;;;;;;;;;;;;;;5115975;28;897;-64
2023/06/17 13:54:41;;;;;;;;;;;;;;;;;;5116641;28;906;-64
2023/06/17 13:57:06;;;;;;;;;;;;;;;;;;5117033;28;1366;-64
2023/06/17 13:59:32;;;;;;;;;;;;;;;;;;5116960;28;896;-64
2023/06/17 14:01:57;;;;;;;;;;;;;;;;;;5116982;28;892;-64
2023/06/17 14:04:23;;;;;;;;;;;;;;;;;;5116860;28;994;-64
2023/06/17 14:06:49;;;;;;;;;;;;;;;;;;5116966;28;1977;-63
2023/06/17 14:09:14;;;;;;;;;;;;;;;;;;5116749;28;874;-64
2023/06/17 14:11:40;;;;;;;;;;;;;;;;;;5116840;28;848;-64
2023/06/17 14:14:05;;;;;;;;;;;;;;;;;;5116210;28;945;-64
2023/06/17 14:16:31;;;;;;;;;;;;;;;;;;5116942;28;921;-64
2023/06/17 14:18:56;;;;;;;;;;;;;;;;;;5116552;28;940;-64
2023/06/17 14:21:32;;;;;;;;;;;;;;;;;;5116766;28;913;-64
2023/06/17 14:24:10;;;;;;;;;;;;;;;;;;5116275;28;789;-64
2023/06/17 14:26:40;;;;;;;;;;;;;;;;;;5115126;28;1898;-64
2023/06/17 14:29:06;;;;;;;;;;;;;;;;;;5116363;28;912;-64
2023/06/17 14:31:31;;;;;;;;;;;;;;;;;;5116023;28;1030;-64
2023/06/17 14:33:58;;;;;;;;;;;;;;;;;;5116156;28;892;-64
2023/06/17 14:36:23;;;;;;;;;;;;;;;;;;5115603;28;865;-64
2023/06/17 14:38:49;;;;;;;;;;;;;;;;;;5116430;28;832;-64
2023/06/17 14:41:14;;;;;;;;;;;;;;;;;;5115991;28;903;-63
2023/06/17 14:43:40;;;;;;;;;;;;;;;;;;5116306;28;829;-64
2023/06/17 14:46:05;;;;;;;;;;;;;;;;;;5116326;28;1968;-64
2023/06/17 14:48:30;;;;;;;;;;;;;;;;;;5116566;28;809;-63
2023/06/17 14:50:56;;;;;;;;;;;;;;;;;;5115607;28;888;-64
2023/06/17 14:53:26;;;;;;;;;;;;;;;;;;5116341;28;995;-64
2023/06/17 14:55:57;;;;;;;;;;;;;;;;;;5115638;28;1282;-64
2023/06/17 14:58:22;;;;;;;;;;;;;;;;;;5114330;28;1223;-63
2023/06/17 15:00:47;;;;;;;;;;;;;;;;;;5113181;28;1241;-63
2023/06/17 15:03:13;;;;;;;;;;;;;;;;;;5119633;28;837;-63
2023/06/17 15:05:38;;;;;;;;;;;;;;;;;;5119074;28;1970;-64
2023/06/17 15:08:04;;;;;;;;;;;;;;;;;;5117327;28;968;-64
2023/06/17 15:10:29;;;;;;;;;;;;;;;;;;5117606;28;829;-64
2023/06/17 15:12:55;;;;;;;;;;;;;;;;;;5117761;28;1178;-63
2023/06/17 15:15:20;;;;;;;;;;;;;;;;;;5100357;28;1641;-64
2023/06/17 15:17:46;;;;;;;;;;;;;;;;;;5117308;28;1123;-63
2023/06/17 15:20:11;;;;;;;;;;;;;;;;;;5116752;28;960;-63
2023/06/17 15:22:37;;;;;;;;;;;;;;;;;;5117038;28;1381;-63
2023/06/17 15:25:03;;;;;;;;;;;;;;;;;;5117513;28;1171;-64
2023/06/17 15:27:28;;;;;;;;;;;;;;;;;;5078009;28;2263;-63
2023/06/17 15:29:54;;;;;;;;;;;;;;;;;;5096144;28;885;-64
2023/06/17 15:32:19;;;;;;;;;;;;;;;;;;5097390;28;887;-63
2023/06/17 15:34:45;;;;;;;;;;;;;;;;;;5095689;28;881;-64
2023/06/17 15:37:10;;;;;;;;;;;;;;;;;;5096110;28;1213;-63
2023/06/17 15:39:38;;;;;;;;;;;;;;;;;;5096868;28;822;-64
2023/06/17 15:42:04;;;;;;;;;;;;;;;;;;5094581;28;845;-64
2023/06/17 15:44:30;;;;;;;;;;;;;;;;;;5077372;28;2395;-64
2023/06/17 15:46:55;;;;;;;;;;;;;;;;;;5096402;28;1894;-64
2023/06/17 15:49:20;;;;;;;;;;;;;;;;;;5095199;28;1349;-64
2023/06/17 15:51:46;;;;;;;;;;;;;;;;;;5097500;28;956;-64
2023/06/17 15:54:11;;;;;;;;;;;;;;;;;;5095696;28;1035;-64
2023/06/17 15:56:37;;;;;;;;;;;;;;;;;;5095836;28;1211;-64
2023/06/17 15:59:03;;;;;;;;;;;;;;;;;;5095793;28;996;-63
2023/06/17 16:01:29;;;;;;;;;;;;;;;;;;5095918;28;860;-64
2023/06/17 16:03:55;;;;;;;;;;;;;;;;;;5108550;28;1298;-64
2023/06/17 16:06:21;;;;;;;;;;;;;;;;;;5113351;28;1902;-64
2023/06/17 16:08:46;;;;;;;;;;;;;;;;;;5114325;28;916;-64
2023/06/17 16:11:11;;;;;;;;;;;;;;;;;;5114164;28;880;-64
2023/06/17 16:13:37;;;;;;;;;;;;;;;;;;5112993;28;920;-64
2023/06/17 16:16:02;;;;;;;;;;;;;;;;;;5113091;28;837;-64
2023/06/17 16:18:28;;;;;;;;;;;;;;;;;;5113864;28;829;-64
2023/06/17 16:20:53;;;;;;;;;;;;;;;;;;5114092;28;900;-64
2023/06/17 16:23:18;;;;;;;;;;;;;;;;;;5113788;28;904;-64
2023/06/17 16:25:44;;;;;;;;;;;;;;;;;;5112644;28;1894;-64
2023/06/17 16:28:12;;;;;;;;;;;;;;;;;;5114059;28;883;-64
2023/06/17 16:30:38;;;;;;;;;;;;;;;;;;5114452;28;1014;-64
2023/06/17 16:33:04;;;;;;;;;;;;;;;;;;5114399;28;887;-64
2023/06/17 16:35:29;;;;;;;;;;;;;;;;;;5113395;28;931;-64
2023/06/17 16:37:54;;;;;;;;;;;;;;;;;;5114342;28;892;-64
2023/06/17 16:40:20;;;;;;;;;;;;;;;;;;5114013;28;1116;-64
2023/06/17 16:42:45;;;;;;;;;;;;;;;;;;5114194;28;845;-64
2023/06/17 16:45:10;;;;;;;;;;;;;;;;;;5113676;28;848;-64
2023/06/17 16:47:36;;;;;;;;;;;;;;;;;;5113707;28;1898;-64
2023/06/17 16:50:01;;;;;;;;;;;;;;;;;;5113759;28;845;-64
2023/06/17 16:52:27;;;;;;;;;;;;;;;;;;5113750;28;837;-64
2023/06/17 16:54:52;;;;;;;;;;;;;;;;;;5113667;28;1023;-65
2023/06/17 16:57:18;;;;;;;;;;;;;;;;;;5113292;28;1411;-64
2023/06/17 16:59:43;;;;;;;;;;;;;;;;;;5114204;28;848;-65
2023/06/17 17:02:09;;;;;;;;;;;;;;;;;;5113895;28;978;-65
2023/06/17 17:04:34;;;;;;;;;;;;;;;;;;5113912;28;889;-64
2023/06/17 17:07:00;;;;;;;;;;;;;;;;;;5114102;28;1895;-62
2023/06/17 17:09:26;;;;;;;;;;;;;;;;;;5113816;28;938;-64